ホバート の空港の天気 - METARとTAF

ホバート国際空港 ( YMHB / HBA ) - オーストラリア タスマニア州、Cambridge
飛行場実況気象(Metar)
観測時間02/02 02:00 AEDT (02/01 15:00 UTC)
風向・風速西北西 4m/s
視程10km以上
天気現象
全天の8割程度の雲 雲底高度 2190m
気温10℃
湿度82%
気圧997hPa
METARYMHB 011500Z AUTO 30007KT 9999 // BKN072 10/07 Q0997 RF00.0/002.2
過去の天気等 Google飛行場航空写真 Wunderground天気予報

過去48時間のMETAR

飛行場予報(TAF)
発表時間: 2/02 01:10 AEDT (2/01 14:10 UTC)
予報対象時間: 2日2時 AEDT ~ 2日23時 AEDT
風向・風速北北西 5m/s
視程10km以上
全天の4割程度の雲 雲底高度 1220m
2日11時 AEDT から
風向・風速北 8m/s 瞬間風速 13m/s
視程10km以上
なし
2日14時 AEDT から
風向・風速北 10m/s 瞬間風速 18m/s
視程10km以上
なし
2日17時 AEDT から
風向・風速北北西 6m/s
視程10km以上
天気現象弱いしゅう雨
全天の8割程度の雲 雲底高度 1520m
2日21時 AEDT から
風向・風速北北西 5m/s
視程10km以上
なし
TAF YMHB 011410Z 0115/0212 33010KT 9999 SCT040
FM020000 35015G25KT CAVOK
FM020300 35020G35KT CAVOK
FM020600 34012KT 9999 -SHRA BKN050
FM021000 33010KT CAVOK